sensor_id;sensor_type;location;lat;lon;timestamp;pressure;altitude;pressure_sealevel;temperature;humidity
77281;BME280;66339;47.262;17.144;2023-05-29T00:01:04;100212.03;;;21.46;56.43
77281;BME280;66339;47.262;17.144;2023-05-29T00:03:31;100213.63;;;21.47;56.39
77281;BME280;66339;47.262;17.144;2023-05-29T00:05:58;100219.81;;;21.48;56.37
77281;BME280;66339;47.262;17.144;2023-05-29T00:08:25;100229.78;;;21.47;56.34
77281;BME280;66339;47.262;17.144;2023-05-29T00:10:55;100216.63;;;21.46;56.31
77281;BME280;66339;47.262;17.144;2023-05-29T00:13:26;100222.81;;;21.46;56.21
77281;BME280;66339;47.262;17.144;2023-05-29T00:15:57;100218.22;;;21.47;56.26
77281;BME280;66339;47.262;17.144;2023-05-29T00:18:24;100206.66;;;21.46;56.22
77281;BME280;66339;47.262;17.144;2023-05-29T00:20:51;100213.63;;;21.47;56.18
77281;BME280;66339;47.262;17.144;2023-05-29T00:23:18;100223.59;;;21.47;56.22
77281;BME280;66339;47.262;17.144;2023-05-29T00:25:47;100218.22;;;21.47;56.23
77281;BME280;66339;47.262;17.144;2023-05-29T00:28:14;100219.81;;;21.48;56.21
77281;BME280;66339;47.262;17.144;2023-05-29T00:30:41;100219.81;;;21.48;56.28
77281;BME280;66339;47.262;17.144;2023-05-29T00:33:08;100219.00;;;21.47;56.31
77281;BME280;66339;47.262;17.144;2023-05-29T00:35:35;100220.13;;;21.46;56.29
77281;BME280;66339;47.262;17.144;2023-05-29T00:38:02;100218.22;;;21.47;56.23
77281;BME280;66339;47.262;17.144;2023-05-29T00:40:32;100219.00;;;21.47;56.30
77281;BME280;66339;47.262;17.144;2023-05-29T00:42:59;100216.63;;;21.46;56.30
77281;BME280;66339;47.262;17.144;2023-05-29T00:45:26;100212.84;;;21.47;56.23
77281;BME280;66339;47.262;17.144;2023-05-29T00:47:52;100213.09;;;21.45;56.23
77281;BME280;66339;47.262;17.144;2023-05-29T00:50:22;100209.63;;;21.45;56.35
77281;BME280;66339;47.262;17.144;2023-05-29T00:52:52;100208.25;;;21.47;56.24
77281;BME280;66339;47.262;17.144;2023-05-29T00:55:19;100210.41;;;21.45;56.32
77281;BME280;66339;47.262;17.144;2023-05-29T00:57:45;100207.72;;;21.45;56.32
77281;BME280;66339;47.262;17.144;2023-05-29T01:00:16;100210.41;;;21.45;56.27
77281;BME280;66339;47.262;17.144;2023-05-29T01:02:43;100207.72;;;21.45;56.29
77281;BME280;66339;47.262;17.144;2023-05-29T01:05:12;100203.44;;;21.44;56.37
77281;BME280;66339;47.262;17.144;2023-05-29T01:07:38;100209.94;;;21.43;56.34
77281;BME280;66339;47.262;17.144;2023-05-29T01:10:05;100211.53;;;21.44;56.33
77281;BME280;66339;47.262;17.144;2023-05-29T01:12:49;100208.03;;;21.44;56.32
77281;BME280;66339;47.262;17.144;2023-05-29T01:20:44;100214.22;;;21.44;56.26
77281;BME280;66339;47.262;17.144;2023-05-29T01:28:29;100217.19;;;21.43;56.18
77281;BME280;66339;47.262;17.144;2023-05-29T01:30:59;100211.03;;;21.42;56.14
77281;BME280;66339;47.262;17.144;2023-05-29T01:33:28;100211.03;;;21.42;56.14
77281;BME280;66339;47.262;17.144;2023-05-29T01:35:55;100218.28;;;21.42;56.09
77281;BME280;66339;47.262;17.144;2023-05-29T01:38:26;100211.03;;;21.42;56.08
77281;BME280;66339;47.262;17.144;2023-05-29T01:40:53;100214.00;;;21.41;56.05
77281;BME280;66339;47.262;17.144;2023-05-29T01:43:22;100214.78;;;21.41;56.02
77281;BME280;66339;47.262;17.144;2023-05-29T01:45:53;100207.00;;;21.40;56.03
77281;BME280;66339;47.262;17.144;2023-05-29T01:48:20;100209.41;;;21.41;55.96
77281;BME280;66339;47.262;17.144;2023-05-29T01:50:51;100205.12;;;21.40;55.93
77281;BME280;66339;47.262;17.144;2023-05-29T01:53:19;100204.03;;;21.41;55.90
77281;BME280;66339;47.262;17.144;2023-05-29T01:55:50;100199.75;;;21.40;55.86
77281;BME280;66339;47.262;17.144;2023-05-29T01:58:20;100197.06;;;21.40;55.83
77281;BME280;66339;47.262;17.144;2023-05-29T02:00:48;100191.66;;;21.40;55.83
77281;BME280;66339;47.262;17.144;2023-05-29T02:03:15;100191.19;;;21.38;55.78
77281;BME280;66339;47.262;17.144;2023-05-29T02:05:45;100192.78;;;21.39;55.77
77281;BME280;66339;47.262;17.144;2023-05-29T02:08:15;100190.06;;;21.39;55.72
77281;BME280;66339;47.262;17.144;2023-05-29T02:10:45;100187.38;;;21.39;55.71
77281;BME280;66339;47.262;17.144;2023-05-29T02:13:15;100183.09;;;21.38;55.70
77281;BME280;66339;47.262;17.144;2023-05-29T02:15:44;100179.31;;;21.39;55.63
77281;BME280;66339;47.262;17.144;2023-05-29T02:18:12;100177.72;;;21.38;55.62
77281;BME280;66339;47.262;17.144;2023-05-29T02:20:45;100181.47;;;21.37;55.61
77281;BME280;66339;47.262;17.144;2023-05-29T02:23:22;100178.53;;;21.39;55.59
77281;BME280;66339;47.262;17.144;2023-05-29T02:25:55;100181.47;;;21.37;55.58
77281;BME280;66339;47.262;17.144;2023-05-29T02:28:22;100181.47;;;21.37;55.53
77281;BME280;66339;47.262;17.144;2023-05-29T02:30:49;100181.47;;;21.37;55.51
77281;BME280;66339;47.262;17.144;2023-05-29T02:33:17;100171.53;;;21.38;55.49
77281;BME280;66339;47.262;17.144;2023-05-29T02:35:45;100176.09;;;21.37;55.45
77281;BME280;66339;47.262;17.144;2023-05-29T02:38:12;100169.13;;;21.36;55.47
77281;BME280;66339;47.262;17.144;2023-05-29T02:40:42;100172.34;;;21.38;55.41
77281;BME280;66339;47.262;17.144;2023-05-29T02:43:12;100174.50;;;21.36;55.37
77281;BME280;66339;47.262;17.144;2023-05-29T02:45:42;100169.94;;;21.37;55.31
77281;BME280;66339;47.262;17.144;2023-05-29T02:48:11;100178.78;;;21.37;55.26
77281;BME280;66339;47.262;17.144;2023-05-29T02:50:42;100169.94;;;21.37;55.29
77281;BME280;66339;47.262;17.144;2023-05-29T02:53:09;100172.91;;;21.35;55.25
77281;BME280;66339;47.262;17.144;2023-05-29T02:55:36;100165.94;;;21.34;55.24
77281;BME280;66339;47.262;17.144;2023-05-29T02:58:06;100170.22;;;21.35;55.24
77281;BME280;66339;47.262;17.144;2023-05-29T03:00:39;100168.63;;;21.34;55.22
77281;BME280;66339;47.262;17.144;2023-05-29T03:03:10;100181.00;;;21.35;55.17
77281;BME280;66339;47.262;17.144;2023-05-29T03:05:37;100182.09;;;21.34;55.15
77281;BME280;66339;47.262;17.144;2023-05-29T03:08:06;100176.72;;;21.34;55.15
77281;BME280;66339;47.262;17.144;2023-05-29T03:10:33;100181.78;;;21.36;55.14
77281;BME280;66339;47.262;17.144;2023-05-29T03:13:00;100182.09;;;21.34;55.06
77281;BME280;66339;47.262;17.144;2023-05-29T03:15:30;100189.06;;;21.35;55.07
77281;BME280;66339;47.262;17.144;2023-05-29T03:18:00;100180.47;;;21.33;55.08
77281;BME280;66339;47.262;17.144;2023-05-29T03:20:33;100186.66;;;21.33;55.02
77281;BME280;66339;47.262;17.144;2023-05-29T03:23:03;100191.22;;;21.33;55.03
77281;BME280;66339;47.262;17.144;2023-05-29T03:25:33;100189.59;;;21.32;54.99
77281;BME280;66339;47.262;17.144;2023-05-29T03:28:00;100193.41;;;21.31;54.98
77281;BME280;66339;47.262;17.144;2023-05-29T03:30:33;100197.69;;;21.32;54.96
77281;BME280;66339;47.262;17.144;2023-05-29T03:33:03;100189.59;;;21.32;54.96
77281;BME280;66339;47.262;17.144;2023-05-29T03:35:36;100201.19;;;21.32;54.89
77281;BME280;66339;47.262;17.144;2023-05-29T03:38:09;100203.06;;;21.32;54.89
77281;BME280;66339;47.262;17.144;2023-05-29T03:40:39;100200.38;;;21.32;54.88
77281;BME280;66339;47.262;17.144;2023-05-29T03:43:09;100201.47;;;21.31;54.87
77281;BME280;66339;47.262;17.144;2023-05-29T03:45:39;100209.53;;;21.31;54.84
77281;BME280;66339;47.262;17.144;2023-05-29T03:48:09;100204.16;;;21.31;54.83
77281;BME280;66339;47.262;17.144;2023-05-29T03:50:39;100204.16;;;21.31;54.81
77281;BME280;66339;47.262;17.144;2023-05-29T03:53:12;100213.31;;;21.30;54.81
77281;BME280;66339;47.262;17.144;2023-05-29T03:55:39;100209.53;;;21.31;54.81
77281;BME280;66339;47.262;17.144;2023-05-29T03:58:09;100211.44;;;21.30;54.83
77281;BME280;66339;47.262;17.144;2023-05-29T04:00:36;100213.31;;;21.30;54.80
77281;BME280;66339;47.262;17.144;2023-05-29T04:03:03;100214.91;;;21.31;54.77
77281;BME280;66339;47.262;17.144;2023-05-29T04:05:30;100214.13;;;21.30;54.78
77281;BME280;66339;47.262;17.144;2023-05-29T04:07:57;100213.31;;;21.30;54.75
77281;BME280;66339;47.262;17.144;2023-05-29T04:10:44;100207.94;;;21.30;54.71
77281;BME280;66339;47.262;17.144;2023-05-29T04:13:14;100219.50;;;21.30;54.69
77281;BME280;66339;47.262;17.144;2023-05-29T04:15:41;100216.00;;;21.30;54.75
77281;BME280;66339;47.262;17.144;2023-05-29T04:18:08;100218.69;;;21.30;54.69
77281;BME280;66339;47.262;17.144;2023-05-29T04:20:35;100220.88;;;21.28;54.70
77281;BME280;66339;47.262;17.144;2023-05-29T04:23:01;100212.50;;;21.29;54.70
77281;BME280;66339;47.262;17.144;2023-05-29T04:25:34;100218.69;;;21.30;54.61
77281;BME280;66339;47.262;17.144;2023-05-29T04:28:01;100218.97;;;21.28;54.64
77281;BME280;66339;47.262;17.144;2023-05-29T04:30:28;100226.25;;;21.28;54.65
77281;BME280;66339;47.262;17.144;2023-05-29T04:32:57;100224.66;;;21.27;54.66
77281;BME280;66339;47.262;17.144;2023-05-29T04:35:27;100237.81;;;21.28;54.67
77281;BME280;66339;47.262;17.144;2023-05-29T04:37:54;100231.62;;;21.28;54.64
77281;BME280;66339;47.262;17.144;2023-05-29T04:40:21;100231.62;;;21.28;54.65
77281;BME280;66339;47.262;17.144;2023-05-29T04:42:49;100235.41;;;21.27;54.65
77281;BME280;66339;47.262;17.144;2023-05-29T04:45:16;100235.41;;;21.27;54.67
77281;BME280;66339;47.262;17.144;2023-05-29T04:47:42;100237.00;;;21.28;54.65
77281;BME280;66339;47.262;17.144;2023-05-29T04:50:14;100228.41;;;21.26;54.67
77281;BME280;66339;47.262;17.144;2023-05-29T04:52:44;100236.47;;;21.26;54.66
77281;BME280;66339;47.262;17.144;2023-05-29T04:55:14;100229.25;;;21.26;54.66
77281;BME280;66339;47.262;17.144;2023-05-29T04:57:41;100232.72;;;21.27;54.67
77281;BME280;66339;47.262;17.144;2023-05-29T05:00:08;100233.78;;;21.26;54.65
77281;BME280;66339;47.262;17.144;2023-05-29T05:02:40;100233.78;;;21.26;54.63
77281;BME280;66339;47.262;17.144;2023-05-29T05:05:07;100235.41;;;21.27;54.73
77281;BME280;66339;47.262;17.144;2023-05-29T05:07:34;100239.19;;;21.26;54.67
77281;BME280;66339;47.262;17.144;2023-05-29T05:10:02;100241.38;;;21.24;54.84
77281;BME280;66339;47.262;17.144;2023-05-29T05:12:32;100234.91;;;21.25;54.89
77281;BME280;66339;47.262;17.144;2023-05-29T05:15:05;100236.47;;;21.26;54.83
77281;BME280;66339;47.262;17.144;2023-05-29T05:17:34;100236.22;;;21.27;55.01
77281;BME280;66339;47.262;17.144;2023-05-29T05:20:01;100234.63;;;21.26;55.17
77281;BME280;66339;47.262;17.144;2023-05-29T05:22:31;100235.41;;;21.27;55.19
77281;BME280;66339;47.262;17.144;2023-05-29T05:25:06;100235.69;;;21.25;55.19
77281;BME280;66339;47.262;17.144;2023-05-29T05:27:33;100234.91;;;21.25;55.28
77281;BME280;66339;47.262;17.144;2023-05-29T05:30:02;100243.50;;;21.27;55.27
77281;BME280;66339;47.262;17.144;2023-05-29T05:32:31;100244.84;;;21.24;55.36
77281;BME280;66339;47.262;17.144;2023-05-29T05:34:59;100248.34;;;21.25;55.22
77281;BME280;66339;47.262;17.144;2023-05-29T05:37:26;100248.34;;;21.25;55.16
77281;BME280;66339;47.262;17.144;2023-05-29T05:40:02;100249.94;;;21.26;55.02
77281;BME280;66339;47.262;17.144;2023-05-29T05:42:29;100244.06;;;21.24;54.83
77281;BME280;66339;47.262;17.144;2023-05-29T05:44:56;100259.41;;;21.23;54.73
77281;BME280;66339;47.262;17.144;2023-05-29T05:47:23;100261.28;;;21.23;54.64
77281;BME280;66339;47.262;17.144;2023-05-29T05:49:54;100256.97;;;21.22;54.50
77281;BME280;66339;47.262;17.144;2023-05-29T05:52:21;100254.28;;;21.22;54.46
77281;BME280;66339;47.262;17.144;2023-05-29T05:54:48;100258.88;;;21.21;54.68
77281;BME280;66339;47.262;17.144;2023-05-29T05:57:19;100258.88;;;21.21;54.72
77281;BME280;66339;47.262;17.144;2023-05-29T05:59:49;100260.78;;;21.21;54.72
77281;BME280;66339;47.262;17.144;2023-05-29T06:02:22;100270.44;;;21.22;54.72
77281;BME280;66339;47.262;17.144;2023-05-29T06:04:52;100269.38;;;21.23;54.84
77281;BME280;66339;47.262;17.144;2023-05-29T06:07:20;100269.06;;;21.24;54.83
77281;BME280;66339;47.262;17.144;2023-05-29T06:09:50;100271.47;;;21.26;54.91
77281;BME280;66339;47.262;17.144;2023-05-29T06:12:20;100273.09;;;21.27;54.81
77281;BME280;66339;47.262;17.144;2023-05-29T06:14:52;100277.37;;;21.28;54.69
77281;BME280;66339;47.262;17.144;2023-05-29T06:17:22;100277.87;;;21.30;54.61
77281;BME280;66339;47.262;17.144;2023-05-29T06:19:51;100276.25;;;21.29;54.71
77281;BME280;66339;47.262;17.144;2023-05-29T06:22:23;100277.87;;;21.30;54.79
77281;BME280;66339;47.262;17.144;2023-05-29T06:24:50;100284.34;;;21.29;54.87
77281;BME280;66339;47.262;17.144;2023-05-29T06:27:17;100280.06;;;21.28;54.89
77281;BME280;66339;47.262;17.144;2023-05-29T06:29:50;100280.84;;;21.28;54.88
77281;BME280;66339;47.262;17.144;2023-05-29T06:32:21;100287.03;;;21.29;54.85
77281;BME280;66339;47.262;17.144;2023-05-29T06:34:51;100292.41;;;21.29;54.82
77281;BME280;66339;47.262;17.144;2023-05-29T06:37:19;100284.34;;;21.29;54.88
77281;BME280;66339;47.262;17.144;2023-05-29T06:39:48;100288.66;;;21.30;54.28
77281;BME280;66339;47.262;17.144;2023-05-29T06:42:15;100292.41;;;21.29;54.39
77281;BME280;66339;47.262;17.144;2023-05-29T06:44:42;100286.22;;;21.28;54.15
77281;BME280;66339;47.262;17.144;2023-05-29T06:47:09;100288.66;;;21.30;54.43
77281;BME280;66339;47.262;17.144;2023-05-29T06:49:39;100291.84;;;21.32;54.35
77281;BME280;66339;47.262;17.144;2023-05-29T06:52:10;100289.16;;;21.32;54.39
77281;BME280;66339;47.262;17.144;2023-05-29T06:54:40;100282.69;;;21.33;54.39
77281;BME280;66339;47.262;17.144;2023-05-29T06:57:08;100288.88;;;21.33;54.44
77281;BME280;66339;47.262;17.144;2023-05-29T06:59:41;100288.59;;;21.35;54.14
77281;BME280;66339;47.262;17.144;2023-05-29T07:02:14;100288.09;;;21.33;54.07
77281;BME280;66339;47.262;17.144;2023-05-29T07:04:44;100288.88;;;21.33;54.03
77281;BME280;66339;47.262;17.144;2023-05-29T07:07:15;100295.09;;;21.34;54.04
77281;BME280;66339;47.262;17.144;2023-05-29T07:09:44;100295.09;;;21.34;54.12
77281;BME280;66339;47.262;17.144;2023-05-29T07:12:14;100298.84;;;21.33;54.00
77281;BME280;66339;47.262;17.144;2023-05-29T07:14:45;100293.47;;;21.33;54.14
77281;BME280;66339;47.262;17.144;2023-05-29T07:17:15;100291.31;;;21.35;54.03
77281;BME280;66339;47.262;17.144;2023-05-29T07:19:47;100298.03;;;21.32;53.92
77281;BME280;66339;47.262;17.144;2023-05-29T07:22:23;100297.78;;;21.34;54.06
77281;BME280;66339;47.262;17.144;2023-05-29T07:24:51;100289.97;;;21.32;54.08
77281;BME280;66339;47.262;17.144;2023-05-29T07:27:21;100289.69;;;21.34;54.03
77281;BME280;66339;47.262;17.144;2023-05-29T07:29:50;100295.09;;;21.34;54.08
77281;BME280;66339;47.262;17.144;2023-05-29T07:32:23;100297.47;;;21.36;54.08
77281;BME280;66339;47.262;17.144;2023-05-29T07:34:50;100303.66;;;21.36;54.15
77281;BME280;66339;47.262;17.144;2023-05-29T07:37:18;100299.88;;;21.37;54.27
77281;BME280;66339;47.262;17.144;2023-05-29T07:39:50;100302.56;;;21.37;54.32
77281;BME280;66339;47.262;17.144;2023-05-29T07:42:17;100297.69;;;21.39;54.17
77281;BME280;66339;47.262;17.144;2023-05-29T07:44:51;100296.91;;;21.39;54.31
77281;BME280;66339;47.262;17.144;2023-05-29T07:47:21;100297.69;;;21.39;54.44
77281;BME280;66339;47.262;17.144;2023-05-29T07:49:48;100304.69;;;21.40;54.45
77281;BME280;66339;47.262;17.144;2023-05-29T07:52:18;100302.50;;;21.42;54.25
77281;BME280;66339;47.262;17.144;2023-05-29T07:54:46;100294.72;;;21.41;54.37
77281;BME280;66339;47.262;17.144;2023-05-29T07:57:16;100299.00;;;21.42;54.58
77281;BME280;66339;47.262;17.144;2023-05-29T07:59:53;100294.44;;;21.42;54.47
77281;BME280;66339;47.262;17.144;2023-05-29T08:02:20;100300.31;;;21.44;54.30
77281;BME280;66339;47.262;17.144;2023-05-29T08:04:47;100286.88;;;21.44;54.38
77281;BME280;66339;47.262;17.144;2023-05-29T08:07:17;100297.13;;;21.42;54.48
77281;BME280;66339;47.262;17.144;2023-05-29T08:09:43;100290.91;;;21.42;54.43
77281;BME280;66339;47.262;17.144;2023-05-29T08:12:10;100290.12;;;21.41;54.53
77281;BME280;66339;47.262;17.144;2023-05-29T08:14:40;100293.91;;;21.40;54.49
77281;BME280;66339;47.262;17.144;2023-05-29T08:17:09;100290.12;;;21.41;54.51
77281;BME280;66339;47.262;17.144;2023-05-29T08:19:38;100289.31;;;21.41;54.59
77281;BME280;66339;47.262;17.144;2023-05-29T08:22:05;100295.81;;;21.40;54.59
77281;BME280;66339;47.262;17.144;2023-05-29T08:24:39;100294.72;;;21.41;54.55
77281;BME280;66339;47.262;17.144;2023-05-29T08:27:06;100297.94;;;21.43;54.91
77281;BME280;66339;47.262;17.144;2023-05-29T08:29:36;100308.37;;;21.44;54.77
77281;BME280;66339;47.262;17.144;2023-05-29T08:32:06;100300.31;;;21.44;54.80
77281;BME280;66339;47.262;17.144;2023-05-29T08:34:33;100308.13;;;21.46;54.68
77281;BME280;66339;47.262;17.144;2023-05-29T08:37:00;100301.13;;;21.45;54.62
77281;BME280;66339;47.262;17.144;2023-05-29T08:39:27;100302.75;;;21.46;54.61
77281;BME280;66339;47.262;17.144;2023-05-29T08:42:04;100307.81;;;21.47;54.60
77281;BME280;66339;47.262;17.144;2023-05-29T08:44:33;100306.72;;;21.48;54.56
77281;BME280;66339;47.262;17.144;2023-05-29T08:47:01;100305.13;;;21.47;54.58
77281;BME280;66339;47.262;17.144;2023-05-29T08:49:34;100301.34;;;21.48;54.52
77281;BME280;66339;47.262;17.144;2023-05-29T08:52:37;100301.34;;;21.48;54.63
77281;BME280;66339;47.262;17.144;2023-05-29T08:54:59;100295.97;;;21.48;54.74
77281;BME280;66339;47.262;17.144;2023-05-29T08:57:27;100305.13;;;21.47;54.86
77281;BME280;66339;47.262;17.144;2023-05-29T08:59:55;100295.16;;;21.48;54.99
77281;BME280;66339;47.262;17.144;2023-05-29T09:02:26;100300.25;;;21.49;55.18
77281;BME280;66339;47.262;17.144;2023-05-29T09:04:53;100294.37;;;21.47;55.17
77281;BME280;66339;47.262;17.144;2023-05-29T09:07:23;100291.69;;;21.47;55.12
77281;BME280;66339;47.262;17.144;2023-05-29T09:09:53;100291.37;;;21.49;55.19
77281;BME280;66339;47.262;17.144;2023-05-29T09:12:20;100293.00;;;21.50;55.28
77281;BME280;66339;47.262;17.144;2023-05-29T09:14:47;100299.16;;;21.50;55.60
77281;BME280;66339;47.262;17.144;2023-05-29T09:17:14;100298.06;;;21.51;55.44
77281;BME280;66339;47.262;17.144;2023-05-29T09:19:41;100294.28;;;21.52;55.29
77281;BME280;66339;47.262;17.144;2023-05-29T09:22:13;100287.81;;;21.53;55.32
77281;BME280;66339;47.262;17.144;2023-05-29T09:24:40;100298.56;;;21.53;55.37
77281;BME280;66339;47.262;17.144;2023-05-29T09:27:08;100290.50;;;21.53;55.30
77281;BME280;66339;47.262;17.144;2023-05-29T09:29:40;100300.19;;;21.54;55.40
77281;BME280;66339;47.262;17.144;2023-05-29T09:32:11;100301.78;;;21.55;55.31
77281;BME280;66339;47.262;17.144;2023-05-29T09:34:39;100296.41;;;21.55;55.14
77281;BME280;66339;47.262;17.144;2023-05-29T09:37:07;100293.41;;;21.57;55.10
77281;BME280;66339;47.262;17.144;2023-05-29T09:39:38;100292.38;;;21.53;55.21
77281;BME280;66339;47.262;17.144;2023-05-29T09:42:11;100290.81;;;21.52;55.22
77281;BME280;66339;47.262;17.144;2023-05-29T09:44:41;100288.91;;;21.52;55.26
77281;BME280;66339;47.262;17.144;2023-05-29T09:47:30;100282.44;;;21.53;55.39
77281;BME280;66339;47.262;17.144;2023-05-29T09:49:55;100292.13;;;21.54;55.52
77281;BME280;66339;47.262;17.144;2023-05-29T09:52:22;100285.63;;;21.55;55.69
77281;BME280;66339;47.262;17.144;2023-05-29T09:54:55;100289.94;;;21.56;55.66
77281;BME280;66339;47.262;17.144;2023-05-29T09:57:26;100282.38;;;21.59;55.65
77281;BME280;66339;47.262;17.144;2023-05-29T09:59:57;100286.66;;;21.60;55.56
77281;BME280;66339;47.262;17.144;2023-05-29T10:02:25;100286.09;;;21.63;55.51
77281;BME280;66339;47.262;17.144;2023-05-29T10:04:55;100290.91;;;21.66;55.54
77281;BME280;66339;47.262;17.144;2023-05-29T10:07:28;100289.00;;;21.66;55.60
77281;BME280;66339;47.262;17.144;2023-05-29T10:10:02;100297.56;;;21.68;55.60
77281;BME280;66339;47.262;17.144;2023-05-29T10:12:32;100291.91;;;21.70;55.66
77281;BME280;66339;47.262;17.144;2023-05-29T10:15:03;100295.66;;;21.69;55.89
77281;BME280;66339;47.262;17.144;2023-05-29T10:17:35;100290.28;;;21.69;56.00
77281;BME280;66339;47.262;17.144;2023-05-29T10:20:06;100291.13;;;21.69;56.08
77281;BME280;66339;47.262;17.144;2023-05-29T10:22:36;100297.28;;;21.70;56.10
77281;BME280;66339;47.262;17.144;2023-05-29T10:25:10;100291.91;;;21.70;56.09
77281;BME280;66339;47.262;17.144;2023-05-29T10:27:37;100292.72;;;21.70;56.05
77281;BME280;66339;47.262;17.144;2023-05-29T10:30:06;100282.72;;;21.71;55.86
77281;BME280;66339;47.262;17.144;2023-05-29T10:32:39;100282.72;;;21.71;55.86
77281;BME280;66339;47.262;17.144;2023-05-29T10:38:02;100277.34;;;21.71;55.96
77281;BME280;66339;47.262;17.144;2023-05-29T10:40:35;100272.75;;;21.71;55.93
77281;BME280;66339;47.262;17.144;2023-05-29T10:43:04;100273.56;;;21.72;55.84
77281;BME280;66339;47.262;17.144;2023-05-29T10:48:42;100269.78;;;21.73;55.94
77281;BME280;66339;47.262;17.144;2023-05-29T10:50:49;100262.22;;;21.75;56.29
77281;BME280;66339;47.262;17.144;2023-05-29T10:53:22;100257.31;;;21.77;56.38
77281;BME280;66339;47.262;17.144;2023-05-29T10:55:58;100252.75;;;21.77;56.32
77281;BME280;66339;47.262;17.144;2023-05-29T10:58:34;100254.06;;;21.80;56.37
77281;BME280;66339;47.262;17.144;2023-05-29T11:01:04;100251.88;;;21.82;56.34
77281;BME280;66339;47.262;17.144;2023-05-29T11:03:34;100253.47;;;21.83;56.39
77281;BME280;66339;47.262;17.144;2023-05-29T11:06:02;100259.66;;;21.84;56.22
77281;BME280;66339;47.262;17.144;2023-05-29T11:08:39;100258.56;;;21.85;56.11
77281;BME280;66339;47.262;17.144;2023-05-29T11:11:11;100260.19;;;21.86;56.01
77281;BME280;66339;47.262;17.144;2023-05-29T11:13:51;100263.66;;;21.86;55.94
77281;BME280;66339;47.262;17.144;2023-05-29T11:18:59;100257.97;;;21.88;55.62
77281;BME280;66339;47.262;17.144;2023-05-29T11:24:24;100250.22;;;21.86;55.37
77281;BME280;66339;47.262;17.144;2023-05-29T11:26:57;100245.91;;;21.85;55.50
77281;BME280;66339;47.262;17.144;2023-05-29T11:29:24;100243.22;;;21.85;55.43
77281;BME280;66339;47.262;17.144;2023-05-29T11:32:04;100242.12;;;21.86;55.36
77281;BME280;66339;47.262;17.144;2023-05-29T11:34:35;100247.50;;;21.86;55.36
77281;BME280;66339;47.262;17.144;2023-05-29T11:37:08;100247.50;;;21.86;55.40
77281;BME280;66339;47.262;17.144;2023-05-29T11:39:38;100242.12;;;21.86;55.46
77281;BME280;66339;47.262;17.144;2023-05-29T11:42:06;100241.03;;;21.87;55.49
77281;BME280;66339;47.262;17.144;2023-05-29T11:44:39;100250.22;;;21.86;55.56
77281;BME280;66339;47.262;17.144;2023-05-29T11:47:09;100238.34;;;21.87;55.53
77281;BME280;66339;47.262;17.144;2023-05-29T11:49:40;100242.12;;;21.86;55.57
77281;BME280;66339;47.262;17.144;2023-05-29T11:52:17;100239.94;;;21.88;55.52
77281;BME280;66339;47.262;17.144;2023-05-29T11:54:44;100238.34;;;21.87;55.54
77281;BME280;66339;47.262;17.144;2023-05-29T11:57:19;100242.62;;;21.88;55.51
77281;BME280;66339;47.262;17.144;2023-05-29T11:59:47;100239.94;;;21.88;55.51
77281;BME280;66339;47.262;17.144;2023-05-29T12:02:14;100236.97;;;21.90;55.50
77281;BME280;66339;47.262;17.144;2023-05-29T12:04:43;100229.16;;;21.88;55.55
77281;BME280;66339;47.262;17.144;2023-05-29T12:07:19;100229.16;;;21.88;55.54
77281;BME280;66339;47.262;17.144;2023-05-29T12:09:46;100223.78;;;21.88;55.52
77281;BME280;66339;47.262;17.144;2023-05-29T12:12:13;100230.78;;;21.89;55.54
77281;BME280;66339;47.262;17.144;2023-05-29T12:14:41;100226.97;;;21.90;55.54
77281;BME280;66339;47.262;17.144;2023-05-29T12:17:09;100225.38;;;21.89;55.58
77281;BME280;66339;47.262;17.144;2023-05-29T12:19:39;100220.81;;;21.90;55.58
77281;BME280;66339;47.262;17.144;2023-05-29T12:22:06;100221.59;;;21.90;55.63
77281;BME280;66339;47.262;17.144;2023-05-29T12:24:34;100221.59;;;21.90;55.62
77281;BME280;66339;47.262;17.144;2023-05-29T12:27:11;100225.09;;;21.91;55.60
77281;BME280;66339;47.262;17.144;2023-05-29T12:29:40;100217.81;;;21.91;55.58
77281;BME280;66339;47.262;17.144;2023-05-29T12:32:09;100212.41;;;21.91;55.54
77281;BME280;66339;47.262;17.144;2023-05-29T12:34:39;100217.31;;;21.89;55.57
77281;BME280;66339;47.262;17.144;2023-05-29T12:37:13;100209.72;;;21.91;55.52
77281;BME280;66339;47.262;17.144;2023-05-29T12:40:08;100209.72;;;21.91;55.50
77281;BME280;66339;47.262;17.144;2023-05-29T12:42:39;100206.72;;;21.93;55.51
77281;BME280;66339;47.262;17.144;2023-05-29T12:45:09;100209.41;;;21.93;55.51
77281;BME280;66339;47.262;17.144;2023-05-29T12:47:48;100209.41;;;21.93;55.49
77281;BME280;66339;47.262;17.144;2023-05-29T12:50:21;100208.62;;;21.92;55.52
77281;BME280;66339;47.262;17.144;2023-05-29T12:53:05;100196.25;;;21.91;55.55
77281;BME280;66339;47.262;17.144;2023-05-29T12:55:36;100204.03;;;21.93;55.60
77281;BME280;66339;47.262;17.144;2023-05-29T12:58:03;100203.25;;;21.92;55.71
77281;BME280;66339;47.262;17.144;2023-05-29T13:00:33;100200.53;;;21.92;55.87
77281;BME280;66339;47.262;17.144;2023-05-29T13:03:01;100208.62;;;21.92;55.96
77281;BME280;66339;47.262;17.144;2023-05-29T13:05:37;100206.44;;;21.94;56.01
77281;BME280;66339;47.262;17.144;2023-05-29T13:08:04;100205.34;;;21.95;56.14
77281;BME280;66339;47.262;17.144;2023-05-29T13:10:33;100206.44;;;21.94;56.29
77281;BME280;66339;47.262;17.144;2023-05-29T13:13:00;100202.66;;;21.95;56.47
77281;BME280;66339;47.262;17.144;2023-05-29T13:15:32;100202.66;;;21.95;56.72